Elandra Spruce — V7JM5 — position and weather

sailwx.info

Track history (hours):
 
Tides and Currents Weather Stations Pressure Air Temp Water Temp Dewpoint Dewpoint Depression Visibility Wind Speed Wind Dir Waves Ship Positions

Elandra Spruce

Last reported at 2017-Aug-15 03:35 UTC. Time now 2017-Aug-16 21:49 UTC.
Position N 25°06' W 015°44'.

Length 183 m; draft 10.9 m.

Type: Tanker. MMSI: 538006719.

Date/timePositionNaut miles runAvg speedWind from/ knotsBaromVisibWave heightAir tempDewpointWater temp
2017-Aug-15 03:35N 25°06' W 015°44'213.2
2017-Aug-15 03:26N 25°07' W 015°43'613.0
2017-Aug-15 02:59N 25°12' W 015°39'713.1
2017-Aug-15 02:27N 25°18' W 015°35'612.8
2017-Aug-15 01:56N 25°23' W 015°31'1712.8
2017-Aug-15 00:38N 25°37' W 015°21'212.5
2017-Aug-15 00:27N 25°39' W 015°19'613.1
2017-Aug-14 23:59N 25°44' W 015°15'713.4
2017-Aug-14 23:27N 25°50' W 015°11'813.2
2017-Aug-14 22:50N 25°57' W 015°06'512.9
2017-Aug-14 22:26N 26°01' W 015°03'713.1
2017-Aug-14 21:53N 26°08' W 014°59'713.0
2017-Aug-14 21:19N 26°13' W 014°53'713.3
2017-Aug-14 20:48N 26°19' W 014°49'413.4
2017-Aug-14 20:28N 26°22' W 014°46'1213.2
2017-Aug-14 19:34N 26°32' W 014°39'113.3
2017-Aug-14 19:30N 26°33' W 014°38'2913.1
2017-Aug-14 17:18N 26°57' W 014°20'613.1
2017-Aug-14 16:52N 27°02' W 014°17'513.1
2017-Aug-14 16:30N 27°05' W 014°13'613.1
2017-Aug-14 16:00N 27°11' W 014°09'713.0
2017-Aug-14 15:30N 27°16' W 014°05'713.4
2017-Aug-14 15:01N 27°22' W 014°01'612.2
2017-Aug-14 14:30N 27°27' W 013°57'713.1
2017-Aug-14 14:00N 27°32' W 013°53'713.3
2017-Aug-14 13:30N 27°38' W 013°49'713.4
2017-Aug-14 13:00N 27°43' W 013°44'713.2
2017-Aug-14 12:30N 27°49' W 013°40'612.8
2017-Aug-14 12:00N 27°54' W 013°36'612.9
2017-Aug-14 11:30N 27°59' W 013°32'713.0
2017-Aug-14 11:00N 28°05' W 013°28'713.0
2017-Aug-14 10:30N 28°10' W 013°24'613.0
2017-Aug-14 10:00N 28°15' W 013°20'612.9
2017-Aug-14 09:30N 28°21' W 013°16'712.4
2017-Aug-14 08:58N 28°26' W 013°12'612.6
2017-Aug-14 08:29N 28°31' W 013°07'812.6
2017-Aug-14 07:51N 28°38' W 013°02'812.7
2017-Aug-14 07:14N 28°44' W 012°58'313.0
2017-Aug-14 07:01N 28°47' W 012°56'713.2
2017-Aug-14 06:31N 28°52' W 012°51'713.0
2017-Aug-14 06:00N 28°58' W 012°47'612.9
2017-Aug-14 05:30N 29°03' W 012°43'713.0
2017-Aug-14 04:57N 29°09' W 012°38'612.9
2017-Aug-14 04:30N 29°14' W 012°35'813.0
2017-Aug-14 03:54N 29°20' W 012°30'513.0
2017-Aug-14 03:30N 29°24' W 012°26'713.0
2017-Aug-14 03:00N 29°30' W 012°22'613.1
2017-Aug-14 02:30N 29°35' W 012°18'813.1
2017-Aug-14 01:54N 29°42' W 012°13'1713.0
2017-Aug-14 00:36N 29°56' W 012°02'613.2
2017-Aug-14 00:10N 30°01' W 011°58'213.2
2017-Aug-14 00:00N 30°02' W 011°57'713.1
2017-Aug-13 23:30N 30°08' W 011°52'813.5
2017-Aug-13 22:56N 30°14' W 011°47'613.3
2017-Aug-13 22:29N 30°19' W 011°43'612.8
2017-Aug-13 22:00N 30°24' W 011°40'612.9
2017-Aug-13 21:30N 30°29' W 011°35'713.1
2017-Aug-13 21:00N 30°35' W 011°31'612.8
2017-Aug-13 20:30N 30°40' W 011°27'612.8
2017-Aug-13 20:00N 30°45' W 011°22'713.0
2017-Aug-13 19:30N 30°51' W 011°18'613.1
2017-Aug-13 19:00N 30°56' W 011°14'713.0
2017-Aug-13 18:30N 31°02' W 011°10'713.0
2017-Aug-13 18:00N 31°07' W 011°06'713.1
2017-Aug-13 17:30N 31°12' W 011°01'913.0
2017-Aug-13 16:49N 31°20' W 010°55'512.9
2017-Aug-13 16:28N 31°23' W 010°52'6913.0
2017-Aug-13 11:08N 32°21' W 010°06'213.1
2017-Aug-13 10:57N 32°23' W 010°05'3812.7
2017-Aug-13 07:58N 32°53' W 009°38'12813.0
2017-Aug-12 22:05N 34°24' W 007°49'213.3
2017-Aug-12 21:58N 34°25' W 007°48'613.1
2017-Aug-12 21:30N 34°29' W 007°43'11813.0
2017-Aug-12 12:25N 35°52' W 005°60'813.6
2017-Aug-12 11:49N 35°57' W 005°52'614.4
2017-Aug-12 11:26N 35°57' W 005°45'613.3
2017-Aug-12 10:58N 35°58' W 005°37'612.1
2017-Aug-12 10:30N 35°59' W 005°30'611.5
2017-Aug-12 10:00N 36°01' W 005°24'612.9
2017-Aug-12 09:30N 36°03' W 005°16'22512.3
2017-Aug-11 15:11N 37°20' W 000°53'512.9
2017-Aug-11 14:50N 37°23' W 000°49'413.1
2017-Aug-11 14:30N 37°26' W 000°45'1313.0
2017-Aug-11 13:30N 37°35' W 000°33'612.8
2017-Aug-11 13:00N 37°40' W 000°28'14812.8
2017-Aug-11 01:27N 39°41' E 001°23'612.6
2017-Aug-11 01:00N 39°45' E 001°27'612.8
2017-Aug-11 00:30N 39°50' E 001°33'713.0
2017-Aug-11 00:00N 39°55' E 001°38'713.1
2017-Aug-10 23:30N 40°00' E 001°43'713.4
2017-Aug-10 23:00N 40°06' E 001°49'713.2
2017-Aug-10 22:30N 40°11' E 001°54'712.9
2017-Aug-10 22:00N 40°16' E 001°60'613.1
2017-Aug-10 21:30N 40°21' E 002°05'713.1
2017-Aug-10 21:00N 40°26' E 002°10'613.1
2017-Aug-10 20:30N 40°31' E 002°15'713.1
2017-Aug-10 20:00N 40°36' E 002°21'713.0
2017-Aug-10 19:30N 40°41' E 002°26'613.0
2017-Aug-10 19:00N 40°46' E 002°32'613.1
2017-Aug-10 18:30N 40°51' E 002°37'713.1
2017-Aug-10 18:00N 40°56' E 002°43'712.9
2017-Aug-10 17:30N 41°01' E 002°48'613.1
2017-Aug-10 17:00N 41°07' E 002°53'13013.0
2017-Aug-10 07:02N 42°50' E 004°39'113.2
2017-Aug-10 06:56N 42°51' E 004°40'613.0
2017-Aug-10 06:30N 42°56' E 004°45'612.8
2017-Aug-10 06:01N 43°01' E 004°50'713.0
2017-Aug-10 05:30N 43°06' E 004°55'613.0
2017-Aug-10 05:00N 43°11' E 005°00'713.6
2017-Aug-10 04:30N 43°18' E 004°59'510.0
2017-Aug-10 04:00N 43°23' E 004°58'1 2.5
2017-Aug-10 03:29N 43°24' E 004°60'0 0.0
2017-Aug-10 02:59N 43°24' E 004°60'0 0.0
2017-Aug-10 02:29N 43°24' E 004°60'0 0.0
2017-Aug-10 01:59N 43°24' E 004°60'0 0.0
2017-Aug-10 01:29N 43°24' E 004°60'0 0.0
2017-Aug-10 00:59N 43°24' E 004°60'0 0.0
2017-Aug-10 00:29N 43°24' E 004°60'0 0.0
2017-Aug-09 23:59N 43°24' E 004°60'0 0.0
2017-Aug-09 23:29N 43°24' E 004°60'0 0.0
2017-Aug-09 22:59N 43°24' E 004°60'0 0.0
2017-Aug-09 22:29N 43°24' E 004°60'0 0.0
2017-Aug-09 21:59N 43°24' E 004°60'0 0.0
2017-Aug-09 21:29N 43°24' E 004°60'0 0.0
2017-Aug-09 20:59N 43°24' E 004°60'0 0.0
2017-Aug-09 20:29N 43°24' E 004°60'0 0.0
2017-Aug-09 19:59N 43°24' E 004°60'0 0.0
2017-Aug-09 19:29N 43°24' E 004°60'0 0.0
2017-Aug-09 18:59N 43°24' E 004°60'0 0.0
2017-Aug-09 18:23N 43°24' E 004°60'0 0.0
2017-Aug-09 17:59N 43°24' E 004°60'0 0.0
2017-Aug-09 17:29N 43°24' E 004°60'0 0.0
2017-Aug-09 16:59N 43°24' E 004°60'0 0.0
2017-Aug-09 16:29N 43°24' E 004°60'0 0.0
2017-Aug-09 15:59N 43°24' E 004°60'0 0.0
2017-Aug-09 15:29N 43°24' E 004°60'0 0.0
2017-Aug-09 14:59N 43°24' E 004°60'0 0.0
2017-Aug-09 14:26N 43°24' E 004°60'0 0.0
2017-Aug-09 13:59N 43°24' E 004°60'0 0.0
2017-Aug-09 13:29N 43°24' E 004°60'0 0.0
2017-Aug-09 12:59N 43°24' E 004°60'0 0.0
2017-Aug-09 12:29N 43°24' E 004°60'0 0.0
2017-Aug-09 11:59N 43°24' E 004°60'0 0.0
2017-Aug-09 11:29N 43°24' E 004°60'0 0.0
2017-Aug-09 10:59N 43°24' E 004°60'0 0.0
2017-Aug-09 10:29N 43°24' E 004°60'0 0.0
2017-Aug-09 09:59N 43°24' E 004°60'0 0.0
2017-Aug-09 09:29N 43°24' E 004°60'0 0.0
2017-Aug-09 08:59N 43°24' E 004°60'0 0.0
2017-Aug-09 08:29N 43°24' E 004°60'0 0.0
2017-Aug-09 07:59N 43°24' E 004°60'0 0.0
2017-Aug-09 07:26N 43°24' E 004°60'0 0.0
2017-Aug-09 06:59N 43°24' E 004°60'0 0.0
2017-Aug-09 06:29N 43°24' E 004°60'0 0.0
2017-Aug-09 05:59N 43°24' E 004°60'0 0.0
2017-Aug-09 05:29N 43°24' E 004°60'0 0.0
2017-Aug-09 04:59N 43°24' E 004°60'0 0.0
2017-Aug-09 04:29N 43°24' E 004°60'0 0.0
2017-Aug-09 03:59N 43°24' E 004°60'0 0.0
2017-Aug-09 03:29N 43°24' E 004°60'0 0.0
2017-Aug-09 02:59N 43°24' E 004°60'0 0.0
2017-Aug-09 02:29N 43°24' E 004°60'0 0.0
2017-Aug-09 01:59N 43°24' E 004°60'0 0.0
2017-Aug-09 01:29N 43°24' E 004°60'0 0.0
2017-Aug-09 00:59N 43°24' E 004°60'0 0.0
2017-Aug-09 00:29N 43°24' E 004°60'0 0.0
2017-Aug-08 23:59N 43°24' E 004°60'0 0.0
2017-Aug-08 23:29N 43°24' E 004°60'0 0.0
2017-Aug-08 22:59N 43°24' E 004°60'0 0.0
2017-Aug-08 22:29N 43°24' E 004°60'0 0.0
2017-Aug-08 21:59N 43°24' E 004°60'0 0.0
2017-Aug-08 21:29N 43°24' E 004°60'0 0.0
2017-Aug-08 20:59N 43°24' E 004°60'0 0.0
2017-Aug-08 20:29N 43°24' E 004°60'0 0.0
2017-Aug-08 19:59N 43°24' E 004°60'0 0.0
2017-Aug-08 19:29N 43°24' E 004°60'0 0.0
2017-Aug-08 18:59N 43°24' E 004°60'0 0.0
2017-Aug-08 18:29N 43°24' E 004°60'0 0.0
2017-Aug-08 17:59N 43°24' E 004°60'0 0.0
2017-Aug-08 17:29N 43°24' E 004°60'0 0.0
2017-Aug-08 16:59N 43°24' E 004°60'0 0.0
2017-Aug-08 16:29N 43°24' E 004°60'0 0.0
2017-Aug-08 15:59N 43°24' E 004°60'0 0.0
2017-Aug-08 15:29N 43°24' E 004°60'0 0.0
2017-Aug-08 14:59N 43°24' E 004°60'0 0.0
2017-Aug-08 14:29N 43°24' E 004°60'0 0.0
2017-Aug-08 13:59N 43°24' E 004°60'0 0.0
2017-Aug-08 13:29N 43°24' E 004°60'0 0.0
2017-Aug-08 12:59N 43°24' E 004°60'0 0.0
2017-Aug-08 12:26N 43°24' E 004°60'0 0.0
2017-Aug-08 11:59N 43°24' E 004°60'0 0.0
2017-Aug-08 11:29N 43°24' E 004°60'0 0.0
2017-Aug-08 10:59N 43°24' E 004°60'0 0.0
2017-Aug-08 10:26N 43°24' E 004°60'0 0.0
2017-Aug-08 09:59N 43°24' E 004°60'0 0.0
2017-Aug-08 09:29N 43°24' E 004°60'0 0.0
2017-Aug-08 08:59N 43°24' E 004°60'0 0.0
2017-Aug-08 08:29N 43°24' E 004°60'0 0.0
2017-Aug-08 07:53N 43°24' E 004°60'0 0.0
2017-Aug-08 07:29N 43°24' E 004°60'0 0.0
2017-Aug-08 06:59N 43°24' E 004°60'0 0.0
2017-Aug-08 06:29N 43°24' E 004°60'0 0.0
2017-Aug-08 05:59N 43°24' E 004°60'0 0.0
2017-Aug-08 05:26N 43°24' E 004°60'0 0.0
2017-Aug-08 04:59N 43°24' E 004°60'0 0.0
2017-Aug-08 04:26N 43°24' E 004°60'0 0.0
2017-Aug-08 03:53N 43°24' E 004°60'0 0.0
2017-Aug-08 03:29N 43°24' E 004°60'0 0.0
2017-Aug-08 02:59N 43°24' E 004°60'0 0.0
2017-Aug-08 02:23N 43°24' E 004°60'0 0.0
2017-Aug-08 01:59N 43°24' E 004°60'0 0.0
2017-Aug-08 01:29N 43°24' E 004°60'0 0.0
2017-Aug-08 00:59N 43°24' E 004°60'0 0.0
2017-Aug-08 00:29N 43°24' E 004°60'0 0.0
2017-Aug-07 23:53N 43°24' E 004°60'0 0.0
2017-Aug-07 23:29N 43°24' E 004°60'0 0.0
2017-Aug-07 22:59N 43°24' E 004°60'0 0.0
2017-Aug-07 22:11N 43°24' E 004°60'0 0.0
2017-Aug-07 21:53N 43°24' E 004°60'0 0.0
2017-Aug-07 21:29N 43°24' E 004°60'0 0.0
2017-Aug-07 20:59N 43°24' E 004°60'0 0.0
2017-Aug-07 20:29N 43°24' E 004°60'0 0.0
2017-Aug-07 19:59N 43°24' E 004°60'0 0.0
2017-Aug-07 19:26N 43°24' E 004°60'0 0.0
2017-Aug-07 18:59N 43°24' E 004°60'0 0.0
2017-Aug-07 18:29N 43°24' E 004°60'0 0.0
2017-Aug-07 17:59N 43°24' E 004°60'0 0.0
2017-Aug-07 17:29N 43°24' E 004°60'0 0.0
2017-Aug-07 16:59N 43°24' E 004°60'0 0.0
2017-Aug-07 16:23N 43°24' E 004°60'0 0.0
2017-Aug-07 15:59N 43°24' E 004°60'0 0.0
2017-Aug-07 15:29N 43°24' E 004°60'0 0.0
2017-Aug-07 14:59N 43°24' E 004°60'0 0.0
2017-Aug-07 14:29N 43°24' E 004°60'0 0.0
2017-Aug-07 13:59N 43°24' E 004°60'0 0.0
2017-Aug-07 13:26N 43°24' E 004°60'0 0.0
2017-Aug-07 12:59N 43°24' E 004°60'0 0.0
2017-Aug-07 12:29N 43°24' E 004°60'0 0.0
2017-Aug-07 11:59N 43°24' E 004°60'0 0.0
2017-Aug-07 11:23N 43°24' E 004°60'0 0.0
2017-Aug-07 10:56N 43°24' E 004°60'0 0.0
2017-Aug-07 10:29N 43°24' E 004°60'0 0.0
2017-Aug-07 09:59N 43°24' E 004°60'0 0.0
2017-Aug-07 09:29N 43°24' E 004°60'0 0.0
2017-Aug-07 08:59N 43°24' E 004°60'0 0.0
2017-Aug-07 08:29N 43°24' E 004°60'0 0.0
2017-Aug-07 07:59N 43°24' E 004°60'0 0.0
2017-Aug-07 07:29N 43°24' E 004°60'0 0.0
2017-Aug-07 06:59N 43°24' E 004°60'0 0.0
2017-Aug-07 06:29N 43°24' E 004°60'0 0.0
2017-Aug-07 05:59N 43°24' E 004°60'0 0.0
2017-Aug-07 05:29N 43°24' E 004°60'0 0.0
2017-Aug-07 04:59N 43°24' E 004°60'0 0.0
2017-Aug-07 04:23N 43°24' E 004°60'0 0.0
2017-Aug-07 03:59N 43°24' E 004°60'0 0.0
2017-Aug-07 03:29N 43°24' E 004°60'0 0.0
2017-Aug-07 02:59N 43°24' E 004°60'0 0.0
2017-Aug-07 02:29N 43°24' E 004°60'0 0.0
2017-Aug-07 01:59N 43°24' E 004°60'0 0.0
2017-Aug-07 01:29N 43°24' E 004°60'0 0.0
2017-Aug-07 00:59N 43°24' E 004°60'0 0.0
2017-Aug-07 00:29N 43°24' E 004°60'0 0.0
2017-Aug-06 23:59N 43°24' E 004°60'0 0.0
2017-Aug-06 23:29N 43°24' E 004°60'0 0.0
2017-Aug-06 22:59N 43°24' E 004°60'0 0.0
2017-Aug-06 22:29N 43°24' E 004°60'0 0.0
2017-Aug-06 21:56N 43°24' E 004°60'0 0.0
2017-Aug-06 21:29N 43°24' E 004°60'0 0.0
2017-Aug-06 20:59N 43°24' E 004°60'0 0.0
2017-Aug-06 20:29N 43°24' E 004°60'0 0.0
2017-Aug-06 19:59N 43°24' E 004°60'0 0.0
2017-Aug-06 19:29N 43°24' E 004°60'0 0.0
2017-Aug-06 18:59N 43°24' E 004°60'0 0.0
2017-Aug-06 18:29N 43°24' E 004°60'0 0.0
2017-Aug-06 17:59N 43°24' E 004°60'0 0.0
2017-Aug-06 17:29N 43°24' E 004°60'0 0.0
2017-Aug-06 16:59N 43°24' E 004°60'0 0.0
2017-Aug-06 16:29N 43°24' E 004°60'0 0.0
2017-Aug-06 15:59N 43°24' E 004°60'0 0.0
2017-Aug-06 15:29N 43°24' E 004°60'0 0.0
2017-Aug-06 14:59N 43°24' E 004°60'0 0.0
2017-Aug-06 14:29N 43°24' E 004°60'0 0.0
2017-Aug-06 13:29N 43°24' E 004°60'0 0.0
2017-Aug-06 12:56N 43°24' E 004°60'0 0.0
2017-Aug-06 12:23N 43°24' E 004°60'0 0.0
2017-Aug-06 11:59N 43°24' E 004°60'0 0.0
2017-Aug-06 11:29N 43°24' E 004°60'0 0.0
2017-Aug-06 10:59N 43°24' E 004°60'0 0.0
2017-Aug-06 10:29N 43°24' E 004°60'0 0.0
2017-Aug-06 09:59N 43°24' E 004°60'0 0.0
2017-Aug-06 09:29N 43°24' E 004°60'0 0.5
2017-Aug-06 09:00N 43°24' E 004°59'3 5.2
2017-Aug-06 08:30N 43°21' E 004°59'5 8.4
2017-Aug-06 07:57N 43°17' E 005°00'511.5
2017-Aug-06 07:30N 43°12' E 005°02'1110.1
2017-Aug-06 06:23N 43°03' E 004°54'612.0
2017-Aug-06 05:51N 42°57' E 004°49'412.0
2017-Aug-06 05:30N 42°54' E 004°45'1011.9
2017-Aug-06 04:40N 42°46' E 004°37'812.2
2017-Aug-06 04:00N 42°39' E 004°31'612.3
2017-Aug-06 03:30N 42°34' E 004°26'6811.6
2017-Aug-05 21:35N 41°40' E 003°30'912.1
2017-Aug-05 20:50N 41°33' E 003°22'412.1
2017-Aug-05 20:30N 41°30' E 003°19'612.0
2017-Aug-05 20:00N 41°25' E 003°14'612.0
2017-Aug-05 19:30N 41°20' E 003°09'612.0
2017-Aug-05 19:00N 41°16' E 003°04'811.2
2017-Aug-05 18:16N 41°09' E 002°57'611.6
2017-Aug-05 17:46N 41°04' E 002°53'311.9
2017-Aug-05 17:30N 41°02' E 002°50'612.2
2017-Aug-05 17:00N 40°57' E 002°45'612.2
2017-Aug-05 16:30N 40°52' E 002°40'612.5
2017-Aug-05 16:00N 40°47' E 002°35'612.4
2017-Aug-05 15:30N 40°43' E 002°30'612.4
2017-Aug-05 15:00N 40°38' E 002°25'612.4
2017-Aug-05 14:30N 40°33' E 002°20'612.4
2017-Aug-05 14:00N 40°28' E 002°15'612.3
2017-Aug-05 13:30N 40°23' E 002°10'612.5
2017-Aug-05 13:00N 40°18' E 002°05'612.4
2017-Aug-05 12:30N 40°13' E 001°60'612.4
2017-Aug-05 12:00N 40°08' E 001°55'612.4
2017-Aug-05 11:30N 40°03' E 001°50'612.6
2017-Aug-05 11:00N 39°59' E 001°45'612.5
2017-Aug-05 10:30N 39°54' E 001°40'612.6
2017-Aug-05 10:00N 39°49' E 001°35'612.4
2017-Aug-05 09:30N 39°44' E 001°30'712.3
2017-Aug-05 08:58N 39°39' E 001°25'612.2
2017-Aug-05 08:30N 39°34' E 001°20'712.1
2017-Aug-05 07:56N 39°29' E 001°15'812.2
2017-Aug-05 07:18N 39°22' E 001°09'411.8
2017-Aug-05 06:59N 39°19' E 001°06'611.7
2017-Aug-05 06:30N 39°15' E 001°01'611.8
2017-Aug-05 06:00N 39°10' E 000°56'611.7
2017-Aug-05 05:30N 39°06' E 000°52'711.8
2017-Aug-05 04:57N 39°01' E 000°47'611.8
2017-Aug-05 04:27N 38°56' E 000°42'612.1
2017-Aug-05 03:55N 38°51' E 000°37'  
Track history (hours):
 
Tides and Currents Weather Stations Pressure Air Temp Water Temp Dewpoint Dewpoint Depression Visibility Wind Speed Wind Dir Waves Ship Positions

Elandra Spruce

Last reported at 2017-Aug-15 03:35 UTC. Time now 2017-Aug-16 21:49 UTC.
Position N 25°06' W 015°44'.

Length 183 m; draft 10.9 m.

Type: Tanker. MMSI: 538006719.

Date/timePositionNaut miles runAvg speedWind from/ knotsBaromVisibWave heightAir tempDewpointWater temp
2017-Aug-15 03:35N 25°06' W 015°44'213.2
2017-Aug-15 03:26N 25°07' W 015°43'613.0
2017-Aug-15 02:59N 25°12' W 015°39'713.1
2017-Aug-15 02:27N 25°18' W 015°35'612.8
2017-Aug-15 01:56N 25°23' W 015°31'1712.8
2017-Aug-15 00:38N 25°37' W 015°21'212.5
2017-Aug-15 00:27N 25°39' W 015°19'613.1
2017-Aug-14 23:59N 25°44' W 015°15'713.4
2017-Aug-14 23:27N 25°50' W 015°11'813.2
2017-Aug-14 22:50N 25°57' W 015°06'512.9
2017-Aug-14 22:26N 26°01' W 015°03'713.1
2017-Aug-14 21:53N 26°08' W 014°59'713.0
2017-Aug-14 21:19N 26°13' W 014°53'713.3
2017-Aug-14 20:48N 26°19' W 014°49'413.4
2017-Aug-14 20:28N 26°22' W 014°46'1213.2
2017-Aug-14 19:34N 26°32' W 014°39'113.3
2017-Aug-14 19:30N 26°33' W 014°38'2913.1
2017-Aug-14 17:18N 26°57' W 014°20'613.1
2017-Aug-14 16:52N 27°02' W 014°17'513.1
2017-Aug-14 16:30N 27°05' W 014°13'613.1
2017-Aug-14 16:00N 27°11' W 014°09'713.0
2017-Aug-14 15:30N 27°16' W 014°05'713.4
2017-Aug-14 15:01N 27°22' W 014°01'612.2
2017-Aug-14 14:30N 27°27' W 013°57'713.1
2017-Aug-14 14:00N 27°32' W 013°53'713.3
2017-Aug-14 13:30N 27°38' W 013°49'713.4
2017-Aug-14 13:00N 27°43' W 013°44'713.2
2017-Aug-14 12:30N 27°49' W 013°40'612.8
2017-Aug-14 12:00N 27°54' W 013°36'612.9
2017-Aug-14 11:30N 27°59' W 013°32'713.0
2017-Aug-14 11:00N 28°05' W 013°28'713.0
2017-Aug-14 10:30N 28°10' W 013°24'613.0
2017-Aug-14 10:00N 28°15' W 013°20'612.9
2017-Aug-14 09:30N 28°21' W 013°16'712.4
2017-Aug-14 08:58N 28°26' W 013°12'612.6
2017-Aug-14 08:29N 28°31' W 013°07'812.6
2017-Aug-14 07:51N 28°38' W 013°02'812.7
2017-Aug-14 07:14N 28°44' W 012°58'313.0
2017-Aug-14 07:01N 28°47' W 012°56'713.2
2017-Aug-14 06:31N 28°52' W 012°51'713.0
2017-Aug-14 06:00N 28°58' W 012°47'612.9
2017-Aug-14 05:30N 29°03' W 012°43'713.0
2017-Aug-14 04:57N 29°09' W 012°38'612.9
2017-Aug-14 04:30N 29°14' W 012°35'813.0
2017-Aug-14 03:54N 29°20' W 012°30'513.0
2017-Aug-14 03:30N 29°24' W 012°26'713.0
2017-Aug-14 03:00N 29°30' W 012°22'613.1
2017-Aug-14 02:30N 29°35' W 012°18'813.1
2017-Aug-14 01:54N 29°42' W 012°13'1713.0
2017-Aug-14 00:36N 29°56' W 012°02'613.2
2017-Aug-14 00:10N 30°01' W 011°58'213.2
2017-Aug-14 00:00N 30°02' W 011°57'713.1
2017-Aug-13 23:30N 30°08' W 011°52'813.5
2017-Aug-13 22:56N 30°14' W 011°47'613.3
2017-Aug-13 22:29N 30°19' W 011°43'612.8
2017-Aug-13 22:00N 30°24' W 011°40'612.9
2017-Aug-13 21:30N 30°29' W 011°35'713.1
2017-Aug-13 21:00N 30°35' W 011°31'612.8
2017-Aug-13 20:30N 30°40' W 011°27'612.8
2017-Aug-13 20:00N 30°45' W 011°22'713.0
2017-Aug-13 19:30N 30°51' W 011°18'613.1
2017-Aug-13 19:00N 30°56' W 011°14'713.0
2017-Aug-13 18:30N 31°02' W 011°10'713.0
2017-Aug-13 18:00N 31°07' W 011°06'713.1
2017-Aug-13 17:30N 31°12' W 011°01'913.0
2017-Aug-13 16:49N 31°20' W 010°55'512.9
2017-Aug-13 16:28N 31°23' W 010°52'6913.0
2017-Aug-13 11:08N 32°21' W 010°06'213.1
2017-Aug-13 10:57N 32°23' W 010°05'3812.7
2017-Aug-13 07:58N 32°53' W 009°38'12813.0
2017-Aug-12 22:05N 34°24' W 007°49'213.3
2017-Aug-12 21:58N 34°25' W 007°48'613.1
2017-Aug-12 21:30N 34°29' W 007°43'11813.0
2017-Aug-12 12:25N 35°52' W 005°60'813.6
2017-Aug-12 11:49N 35°57' W 005°52'614.4
2017-Aug-12 11:26N 35°57' W 005°45'613.3
2017-Aug-12 10:58N 35°58' W 005°37'612.1
2017-Aug-12 10:30N 35°59' W 005°30'611.5
2017-Aug-12 10:00N 36°01' W 005°24'612.9
2017-Aug-12 09:30N 36°03' W 005°16'22512.3
2017-Aug-11 15:11N 37°20' W 000°53'512.9
2017-Aug-11 14:50N 37°23' W 000°49'413.1
2017-Aug-11 14:30N 37°26' W 000°45'1313.0
2017-Aug-11 13:30N 37°35' W 000°33'612.8
2017-Aug-11 13:00N 37°40' W 000°28'14812.8
2017-Aug-11 01:27N 39°41' E 001°23'612.6
2017-Aug-11 01:00N 39°45' E 001°27'612.8
2017-Aug-11 00:30N 39°50' E 001°33'713.0
2017-Aug-11 00:00N 39°55' E 001°38'713.1
2017-Aug-10 23:30N 40°00' E 001°43'713.4
2017-Aug-10 23:00N 40°06' E 001°49'713.2
2017-Aug-10 22:30N 40°11' E 001°54'712.9
2017-Aug-10 22:00N 40°16' E 001°60'613.1
2017-Aug-10 21:30N 40°21' E 002°05'713.1
2017-Aug-10 21:00N 40°26' E 002°10'613.1
2017-Aug-10 20:30N 40°31' E 002°15'713.1
2017-Aug-10 20:00N 40°36' E 002°21'713.0
2017-Aug-10 19:30N 40°41' E 002°26'613.0
2017-Aug-10 19:00N 40°46' E 002°32'613.1
2017-Aug-10 18:30N 40°51' E 002°37'713.1
2017-Aug-10 18:00N 40°56' E 002°43'712.9
2017-Aug-10 17:30N 41°01' E 002°48'613.1
2017-Aug-10 17:00N 41°07' E 002°53'13013.0
2017-Aug-10 07:02N 42°50' E 004°39'113.2
2017-Aug-10 06:56N 42°51' E 004°40'613.0
2017-Aug-10 06:30N 42°56' E 004°45'612.8
2017-Aug-10 06:01N 43°01' E 004°50'713.0
2017-Aug-10 05:30N 43°06' E 004°55'613.0
2017-Aug-10 05:00N 43°11' E 005°00'713.6
2017-Aug-10 04:30N 43°18' E 004°59'510.0
2017-Aug-10 04:00N 43°23' E 004°58'1 2.5
2017-Aug-10 03:29N 43°24' E 004°60'0 0.0
2017-Aug-10 02:59N 43°24' E 004°60'0 0.0
2017-Aug-10 02:29N 43°24' E 004°60'0 0.0
2017-Aug-10 01:59N 43°24' E 004°60'0 0.0
2017-Aug-10 01:29N 43°24' E 004°60'0 0.0
2017-Aug-10 00:59N 43°24' E 004°60'0 0.0
2017-Aug-10 00:29N 43°24' E 004°60'0 0.0
2017-Aug-09 23:59N 43°24' E 004°60'0 0.0
2017-Aug-09 23:29N 43°24' E 004°60'0 0.0
2017-Aug-09 22:59N 43°24' E 004°60'0 0.0
2017-Aug-09 22:29N 43°24' E 004°60'0 0.0
2017-Aug-09 21:59N 43°24' E 004°60'0 0.0
2017-Aug-09 21:29N 43°24' E 004°60'0 0.0
2017-Aug-09 20:59N 43°24' E 004°60'0 0.0
2017-Aug-09 20:29N 43°24' E 004°60'0 0.0
2017-Aug-09 19:59N 43°24' E 004°60'0 0.0
2017-Aug-09 19:29N 43°24' E 004°60'0 0.0
2017-Aug-09 18:59N 43°24' E 004°60'0 0.0
2017-Aug-09 18:23N 43°24' E 004°60'0 0.0
2017-Aug-09 17:59N 43°24' E 004°60'0 0.0
2017-Aug-09 17:29N 43°24' E 004°60'0 0.0
2017-Aug-09 16:59N 43°24' E 004°60'0 0.0
2017-Aug-09 16:29N 43°24' E 004°60'0 0.0
2017-Aug-09 15:59N 43°24' E 004°60'0 0.0
2017-Aug-09 15:29N 43°24' E 004°60'0 0.0
2017-Aug-09 14:59N 43°24' E 004°60'0 0.0
2017-Aug-09 14:26N 43°24' E 004°60'0 0.0
2017-Aug-09 13:59N 43°24' E 004°60'0 0.0
2017-Aug-09 13:29N 43°24' E 004°60'0 0.0
2017-Aug-09 12:59N 43°24' E 004°60'0 0.0
2017-Aug-09 12:29N 43°24' E 004°60'0 0.0
2017-Aug-09 11:59N 43°24' E 004°60'0 0.0
2017-Aug-09 11:29N 43°24' E 004°60'0 0.0
2017-Aug-09 10:59N 43°24' E 004°60'0 0.0
2017-Aug-09 10:29N 43°24' E 004°60'0 0.0
2017-Aug-09 09:59N 43°24' E 004°60'0 0.0
2017-Aug-09 09:29N 43°24' E 004°60'0 0.0
2017-Aug-09 08:59N 43°24' E 004°60'0 0.0
2017-Aug-09 08:29N 43°24' E 004°60'0 0.0
2017-Aug-09 07:59N 43°24' E 004°60'0 0.0
2017-Aug-09 07:26N 43°24' E 004°60'0 0.0
2017-Aug-09 06:59N 43°24' E 004°60'0 0.0
2017-Aug-09 06:29N 43°24' E 004°60'0 0.0
2017-Aug-09 05:59N 43°24' E 004°60'0 0.0
2017-Aug-09 05:29N 43°24' E 004°60'0 0.0
2017-Aug-09 04:59N 43°24' E 004°60'0 0.0
2017-Aug-09 04:29N 43°24' E 004°60'0 0.0
2017-Aug-09 03:59N 43°24' E 004°60'0 0.0
2017-Aug-09 03:29N 43°24' E 004°60'0 0.0
2017-Aug-09 02:59N 43°24' E 004°60'0 0.0
2017-Aug-09 02:29N 43°24' E 004°60'0 0.0
2017-Aug-09 01:59N 43°24' E 004°60'0 0.0
2017-Aug-09 01:29N 43°24' E 004°60'0 0.0
2017-Aug-09 00:59N 43°24' E 004°60'0 0.0
2017-Aug-09 00:29N 43°24' E 004°60'0 0.0
2017-Aug-08 23:59N 43°24' E 004°60'0 0.0
2017-Aug-08 23:29N 43°24' E 004°60'0 0.0
2017-Aug-08 22:59N 43°24' E 004°60'0 0.0
2017-Aug-08 22:29N 43°24' E 004°60'0 0.0
2017-Aug-08 21:59N 43°24' E 004°60'0 0.0
2017-Aug-08 21:29N 43°24' E 004°60'0 0.0
2017-Aug-08 20:59N 43°24' E 004°60'0 0.0
2017-Aug-08 20:29N 43°24' E 004°60'0 0.0
2017-Aug-08 19:59N 43°24' E 004°60'0 0.0
2017-Aug-08 19:29N 43°24' E 004°60'0 0.0
2017-Aug-08 18:59N 43°24' E 004°60'0 0.0
2017-Aug-08 18:29N 43°24' E 004°60'0 0.0
2017-Aug-08 17:59N 43°24' E 004°60'0 0.0
2017-Aug-08 17:29N 43°24' E 004°60'0 0.0
2017-Aug-08 16:59N 43°24' E 004°60'0 0.0
2017-Aug-08 16:29N 43°24' E 004°60'0 0.0
2017-Aug-08 15:59N 43°24' E 004°60'0 0.0
2017-Aug-08 15:29N 43°24' E 004°60'0 0.0
2017-Aug-08 14:59N 43°24' E 004°60'0 0.0
2017-Aug-08 14:29N 43°24' E 004°60'0 0.0
2017-Aug-08 13:59N 43°24' E 004°60'0 0.0
2017-Aug-08 13:29N 43°24' E 004°60'0 0.0
2017-Aug-08 12:59N 43°24' E 004°60'0 0.0
2017-Aug-08 12:26N 43°24' E 004°60'0 0.0
2017-Aug-08 11:59N 43°24' E 004°60'0 0.0
2017-Aug-08 11:29N 43°24' E 004°60'0 0.0
2017-Aug-08 10:59N 43°24' E 004°60'0 0.0
2017-Aug-08 10:26N 43°24' E 004°60'0 0.0
2017-Aug-08 09:59N 43°24' E 004°60'0 0.0
2017-Aug-08 09:29N 43°24' E 004°60'0 0.0
2017-Aug-08 08:59N 43°24' E 004°60'0 0.0
2017-Aug-08 08:29N 43°24' E 004°60'0 0.0
2017-Aug-08 07:53N 43°24' E 004°60'0 0.0
2017-Aug-08 07:29N 43°24' E 004°60'0 0.0
2017-Aug-08 06:59N 43°24' E 004°60'0 0.0
2017-Aug-08 06:29N 43°24' E 004°60'0 0.0
2017-Aug-08 05:59N 43°24' E 004°60'0 0.0
2017-Aug-08 05:26N 43°24' E 004°60'0 0.0
2017-Aug-08 04:59N 43°24' E 004°60'0 0.0
2017-Aug-08 04:26N 43°24' E 004°60'0 0.0
2017-Aug-08 03:53N 43°24' E 004°60'0 0.0
2017-Aug-08 03:29N 43°24' E 004°60'0 0.0
2017-Aug-08 02:59N 43°24' E 004°60'0 0.0
2017-Aug-08 02:23N 43°24' E 004°60'0 0.0
2017-Aug-08 01:59N 43°24' E 004°60'0 0.0
2017-Aug-08 01:29N 43°24' E 004°60'0 0.0
2017-Aug-08 00:59N 43°24' E 004°60'0 0.0
2017-Aug-08 00:29N 43°24' E 004°60'0 0.0
2017-Aug-07 23:53N 43°24' E 004°60'0 0.0
2017-Aug-07 23:29N 43°24' E 004°60'0 0.0
2017-Aug-07 22:59N 43°24' E 004°60'0 0.0
2017-Aug-07 22:11N 43°24' E 004°60'0 0.0
2017-Aug-07 21:53N 43°24' E 004°60'0 0.0
2017-Aug-07 21:29N 43°24' E 004°60'0 0.0
2017-Aug-07 20:59N 43°24' E 004°60'0 0.0
2017-Aug-07 20:29N 43°24' E 004°60'0 0.0
2017-Aug-07 19:59N 43°24' E 004°60'0 0.0
2017-Aug-07 19:26N 43°24' E 004°60'0 0.0
2017-Aug-07 18:59N 43°24' E 004°60'0 0.0
2017-Aug-07 18:29N 43°24' E 004°60'0 0.0
2017-Aug-07 17:59N 43°24' E 004°60'0 0.0
2017-Aug-07 17:29N 43°24' E 004°60'0 0.0
2017-Aug-07 16:59N 43°24' E 004°60'0 0.0
2017-Aug-07 16:23N 43°24' E 004°60'0 0.0
2017-Aug-07 15:59N 43°24' E 004°60'0 0.0
2017-Aug-07 15:29N 43°24' E 004°60'0 0.0
2017-Aug-07 14:59N 43°24' E 004°60'0 0.0
2017-Aug-07 14:29N 43°24' E 004°60'0 0.0
2017-Aug-07 13:59N 43°24' E 004°60'0 0.0
2017-Aug-07 13:26N 43°24' E 004°60'0 0.0
2017-Aug-07 12:59N 43°24' E 004°60'0 0.0
2017-Aug-07 12:29N 43°24' E 004°60'0 0.0
2017-Aug-07 11:59N 43°24' E 004°60'0 0.0
2017-Aug-07 11:23N 43°24' E 004°60'0 0.0
2017-Aug-07 10:56N 43°24' E 004°60'0 0.0
2017-Aug-07 10:29N 43°24' E 004°60'0 0.0
2017-Aug-07 09:59N 43°24' E 004°60'0 0.0
2017-Aug-07 09:29N 43°24' E 004°60'0 0.0
2017-Aug-07 08:59N 43°24' E 004°60'0 0.0
2017-Aug-07 08:29N 43°24' E 004°60'0 0.0
2017-Aug-07 07:59N 43°24' E 004°60'0 0.0
2017-Aug-07 07:29N 43°24' E 004°60'0 0.0
2017-Aug-07 06:59N 43°24' E 004°60'0 0.0
2017-Aug-07 06:29N 43°24' E 004°60'0 0.0
2017-Aug-07 05:59N 43°24' E 004°60'0 0.0
2017-Aug-07 05:29N 43°24' E 004°60'0 0.0
2017-Aug-07 04:59N 43°24' E 004°60'0 0.0
2017-Aug-07 04:23N 43°24' E 004°60'0 0.0
2017-Aug-07 03:59N 43°24' E 004°60'0 0.0
2017-Aug-07 03:29N 43°24' E 004°60'0 0.0
2017-Aug-07 02:59N 43°24' E 004°60'0 0.0
2017-Aug-07 02:29N 43°24' E 004°60'0 0.0
2017-Aug-07 01:59N 43°24' E 004°60'0 0.0
2017-Aug-07 01:29N 43°24' E 004°60'0 0.0
2017-Aug-07 00:59N 43°24' E 004°60'0 0.0
2017-Aug-07 00:29N 43°24' E 004°60'0 0.0
2017-Aug-06 23:59N 43°24' E 004°60'0 0.0
2017-Aug-06 23:29N 43°24' E 004°60'0 0.0
2017-Aug-06 22:59N 43°24' E 004°60'0 0.0
2017-Aug-06 22:29N 43°24' E 004°60'0 0.0
2017-Aug-06 21:56N 43°24' E 004°60'0 0.0
2017-Aug-06 21:29N 43°24' E 004°60'0 0.0
2017-Aug-06 20:59N 43°24' E 004°60'0 0.0
2017-Aug-06 20:29N 43°24' E 004°60'0 0.0
2017-Aug-06 19:59N 43°24' E 004°60'0 0.0
2017-Aug-06 19:29N 43°24' E 004°60'0 0.0
2017-Aug-06 18:59N 43°24' E 004°60'0 0.0
2017-Aug-06 18:29N 43°24' E 004°60'0 0.0
2017-Aug-06 17:59N 43°24' E 004°60'0 0.0
2017-Aug-06 17:29N 43°24' E 004°60'0 0.0
2017-Aug-06 16:59N 43°24' E 004°60'0 0.0
2017-Aug-06 16:29N 43°24' E 004°60'0 0.0
2017-Aug-06 15:59N 43°24' E 004°60'0 0.0
2017-Aug-06 15:29N 43°24' E 004°60'0 0.0
2017-Aug-06 14:59N 43°24' E 004°60'0 0.0
2017-Aug-06 14:29N 43°24' E 004°60'0 0.0
2017-Aug-06 13:29N 43°24' E 004°60'0 0.0
2017-Aug-06 12:56N 43°24' E 004°60'0 0.0
2017-Aug-06 12:23N 43°24' E 004°60'0 0.0
2017-Aug-06 11:59N 43°24' E 004°60'0 0.0
2017-Aug-06 11:29N 43°24' E 004°60'0 0.0
2017-Aug-06 10:59N 43°24' E 004°60'0 0.0
2017-Aug-06 10:29N 43°24' E 004°60'0 0.0
2017-Aug-06 09:59N 43°24' E 004°60'0 0.0
2017-Aug-06 09:29N 43°24' E 004°60'0 0.5
2017-Aug-06 09:00N 43°24' E 004°59'3 5.2
2017-Aug-06 08:30N 43°21' E 004°59'5 8.4
2017-Aug-06 07:57N 43°17' E 005°00'511.5
2017-Aug-06 07:30N 43°12' E 005°02'1110.1
2017-Aug-06 06:23N 43°03' E 004°54'612.0
2017-Aug-06 05:51N 42°57' E 004°49'412.0
2017-Aug-06 05:30N 42°54' E 004°45'1011.9
2017-Aug-06 04:40N 42°46' E 004°37'812.2
2017-Aug-06 04:00N 42°39' E 004°31'612.3
2017-Aug-06 03:30N 42°34' E 004°26'6811.6
2017-Aug-05 21:35N 41°40' E 003°30'912.1
2017-Aug-05 20:50N 41°33' E 003°22'412.1
2017-Aug-05 20:30N 41°30' E 003°19'612.0
2017-Aug-05 20:00N 41°25' E 003°14'612.0
2017-Aug-05 19:30N 41°20' E 003°09'612.0
2017-Aug-05 19:00N 41°16' E 003°04'811.2
2017-Aug-05 18:16N 41°09' E 002°57'611.6
2017-Aug-05 17:46N 41°04' E 002°53'311.9
2017-Aug-05 17:30N 41°02' E 002°50'612.2
2017-Aug-05 17:00N 40°57' E 002°45'612.2
2017-Aug-05 16:30N 40°52' E 002°40'612.5
2017-Aug-05 16:00N 40°47' E 002°35'612.4
2017-Aug-05 15:30N 40°43' E 002°30'612.4
2017-Aug-05 15:00N 40°38' E 002°25'612.4
2017-Aug-05 14:30N 40°33' E 002°20'612.4
2017-Aug-05 14:00N 40°28' E 002°15'612.3
2017-Aug-05 13:30N 40°23' E 002°10'612.5
2017-Aug-05 13:00N 40°18' E 002°05'612.4
2017-Aug-05 12:30N 40°13' E 001°60'612.4
2017-Aug-05 12:00N 40°08' E 001°55'612.4
2017-Aug-05 11:30N 40°03' E 001°50'612.6
2017-Aug-05 11:00N 39°59' E 001°45'612.5
2017-Aug-05 10:30N 39°54' E 001°40'612.6
2017-Aug-05 10:00N 39°49' E 001°35'612.4
2017-Aug-05 09:30N 39°44' E 001°30'712.3
2017-Aug-05 08:58N 39°39' E 001°25'612.2
2017-Aug-05 08:30N 39°34' E 001°20'712.1
2017-Aug-05 07:56N 39°29' E 001°15'812.2
2017-Aug-05 07:18N 39°22' E 001°09'411.8
2017-Aug-05 06:59N 39°19' E 001°06'611.7
2017-Aug-05 06:30N 39°15' E 001°01'611.8
2017-Aug-05 06:00N 39°10' E 000°56'611.7
2017-Aug-05 05:30N 39°06' E 000°52'711.8
2017-Aug-05 04:57N 39°01' E 000°47'611.8
2017-Aug-05 04:27N 38°56' E 000°42'612.1
2017-Aug-05 03:55N 38°51' E 000°37'  

Dump ship's entire track history